sensor_id;sensor_type;location;lat;lon;timestamp;temperature;humidity
23715;DHT22;12036;50.858;4.472;2023-02-16T00:00:53;7.40;99.90
23715;DHT22;12036;50.858;4.472;2023-02-16T00:03:21;7.40;99.90
23715;DHT22;12036;50.858;4.472;2023-02-16T00:05:47;7.40;99.90
23715;DHT22;12036;50.858;4.472;2023-02-16T00:08:13;7.40;99.90
23715;DHT22;12036;50.858;4.472;2023-02-16T00:10:39;7.40;99.90
23715;DHT22;12036;50.858;4.472;2023-02-16T00:13:31;7.40;99.90
23715;DHT22;12036;50.858;4.472;2023-02-16T00:16:20;7.40;99.90
23715;DHT22;12036;50.858;4.472;2023-02-16T00:18:46;7.40;99.90
23715;DHT22;12036;50.858;4.472;2023-02-16T00:21:12;7.30;99.90
23715;DHT22;12036;50.858;4.472;2023-02-16T00:23:38;7.30;99.90
23715;DHT22;12036;50.858;4.472;2023-02-16T00:26:05;7.30;99.90
23715;DHT22;12036;50.858;4.472;2023-02-16T00:28:35;7.30;99.90
23715;DHT22;12036;50.858;4.472;2023-02-16T00:31:00;7.20;99.90
23715;DHT22;12036;50.858;4.472;2023-02-16T00:33:26;7.20;99.90
23715;DHT22;12036;50.858;4.472;2023-02-16T00:35:51;7.20;99.90
23715;DHT22;12036;50.858;4.472;2023-02-16T00:38:17;7.20;99.90
23715;DHT22;12036;50.858;4.472;2023-02-16T00:40:43;7.20;99.90
23715;DHT22;12036;50.858;4.472;2023-02-16T00:43:21;7.20;99.90
23715;DHT22;12036;50.858;4.472;2023-02-16T00:45:47;7.10;99.90
23715;DHT22;12036;50.858;4.472;2023-02-16T00:48:13;7.00;99.90
23715;DHT22;12036;50.858;4.472;2023-02-16T00:50:38;7.00;99.90
23715;DHT22;12036;50.858;4.472;2023-02-16T00:53:04;7.00;99.90
23715;DHT22;12036;50.858;4.472;2023-02-16T00:55:34;6.90;99.90
23715;DHT22;12036;50.858;4.472;2023-02-16T01:00:59;6.90;99.90
23715;DHT22;12036;50.858;4.472;2023-02-16T01:03:28;6.90;99.90
23715;DHT22;12036;50.858;4.472;2023-02-16T01:05:54;6.80;99.90
23715;DHT22;12036;50.858;4.472;2023-02-16T01:08:38;6.80;99.90
23715;DHT22;12036;50.858;4.472;2023-02-16T01:11:22;6.80;99.90
23715;DHT22;12036;50.858;4.472;2023-02-16T01:13:50;6.80;99.90
23715;DHT22;12036;50.858;4.472;2023-02-16T01:16:20;6.80;99.90
23715;DHT22;12036;50.858;4.472;2023-02-16T01:18:46;6.80;99.90
23715;DHT22;12036;50.858;4.472;2023-02-16T01:21:12;6.70;99.90
23715;DHT22;12036;50.858;4.472;2023-02-16T01:23:38;6.70;99.90
23715;DHT22;12036;50.858;4.472;2023-02-16T01:26:05;6.70;99.90
23715;DHT22;12036;50.858;4.472;2023-02-16T01:28:34;6.70;99.90
23715;DHT22;12036;50.858;4.472;2023-02-16T01:31:01;6.70;99.90
23715;DHT22;12036;50.858;4.472;2023-02-16T01:33:26;6.70;99.90
23715;DHT22;12036;50.858;4.472;2023-02-16T01:35:54;6.70;99.90
23715;DHT22;12036;50.858;4.472;2023-02-16T01:38:26;6.70;99.90
23715;DHT22;12036;50.858;4.472;2023-02-16T01:41:10;6.70;99.90
23715;DHT22;12036;50.858;4.472;2023-02-16T01:44:01;6.70;99.90
23715;DHT22;12036;50.858;4.472;2023-02-16T01:49:16;6.80;99.90
23715;DHT22;12036;50.858;4.472;2023-02-16T01:51:56;6.80;99.90
23715;DHT22;12036;50.858;4.472;2023-02-16T01:54:34;6.80;99.90
23715;DHT22;12036;50.858;4.472;2023-02-16T01:57:24;6.80;99.90
23715;DHT22;12036;50.858;4.472;2023-02-16T02:02:28;6.90;99.90
23715;DHT22;12036;50.858;4.472;2023-02-16T02:05:14;7.00;99.90
23715;DHT22;12036;50.858;4.472;2023-02-16T02:08:09;7.00;99.90
23715;DHT22;12036;50.858;4.472;2023-02-16T02:10:44;7.00;99.90
23715;DHT22;12036;50.858;4.472;2023-02-16T02:13:20;7.10;99.90
23715;DHT22;12036;50.858;4.472;2023-02-16T02:15:47;7.10;99.90
23715;DHT22;12036;50.858;4.472;2023-02-16T02:18:13;7.20;99.90
23715;DHT22;12036;50.858;4.472;2023-02-16T02:27:10;7.20;99.90
23715;DHT22;12036;50.858;4.472;2023-02-16T02:33:38;7.20;99.90
23715;DHT22;12036;50.858;4.472;2023-02-16T02:36:21;7.30;99.90
23715;DHT22;12036;50.858;4.472;2023-02-16T02:38:35;7.30;99.90
23715;DHT22;12036;50.858;4.472;2023-02-16T02:44:28;7.40;99.90
23715;DHT22;12036;50.858;4.472;2023-02-16T02:46:54;7.40;99.90
23715;DHT22;12036;50.858;4.472;2023-02-16T02:49:20;7.40;99.90
23715;DHT22;12036;50.858;4.472;2023-02-16T02:51:46;7.50;99.90
23715;DHT22;12036;50.858;4.472;2023-02-16T02:54:19;7.50;99.90
23715;DHT22;12036;50.858;4.472;2023-02-16T03:00:18;7.50;99.90
23715;DHT22;12036;50.858;4.472;2023-02-16T03:03:14;7.60;99.90
23715;DHT22;12036;50.858;4.472;2023-02-16T03:05:44;7.50;99.90
23715;DHT22;12036;50.858;4.472;2023-02-16T03:08:14;7.50;99.90
23715;DHT22;12036;50.858;4.472;2023-02-16T03:10:45;7.50;99.90
23715;DHT22;12036;50.858;4.472;2023-02-16T03:13:40;7.40;99.90
23715;DHT22;12036;50.858;4.472;2023-02-16T03:16:19;7.40;99.90
23715;DHT22;12036;50.858;4.472;2023-02-16T03:18:47;7.30;99.90
23715;DHT22;12036;50.858;4.472;2023-02-16T03:21:32;7.20;99.90
23715;DHT22;12036;50.858;4.472;2023-02-16T03:24:26;7.20;99.90
23715;DHT22;12036;50.858;4.472;2023-02-16T03:27:13;7.20;99.90
23715;DHT22;12036;50.858;4.472;2023-02-16T03:29:59;7.10;99.90
23715;DHT22;12036;50.858;4.472;2023-02-16T03:32:26;7.20;99.90
23715;DHT22;12036;50.858;4.472;2023-02-16T03:34:51;7.20;99.90
23715;DHT22;12036;50.858;4.472;2023-02-16T03:37:17;7.20;99.90
23715;DHT22;12036;50.858;4.472;2023-02-16T03:39:43;7.20;99.90
23715;DHT22;12036;50.858;4.472;2023-02-16T03:42:27;7.30;99.90
23715;DHT22;12036;50.858;4.472;2023-02-16T03:44:53;7.20;99.90
23715;DHT22;12036;50.858;4.472;2023-02-16T03:47:19;7.30;99.90
23715;DHT22;12036;50.858;4.472;2023-02-16T03:49:45;7.20;99.90
23715;DHT22;12036;50.858;4.472;2023-02-16T03:52:11;7.20;99.90
23715;DHT22;12036;50.858;4.472;2023-02-16T03:54:36;7.20;99.90
23715;DHT22;12036;50.858;4.472;2023-02-16T03:57:02;7.20;99.90
23715;DHT22;12036;50.858;4.472;2023-02-16T03:59:27;7.20;99.90
23715;DHT22;12036;50.858;4.472;2023-02-16T04:01:53;7.30;99.90
23715;DHT22;12036;50.858;4.472;2023-02-16T04:04:19;7.20;99.90
23715;DHT22;12036;50.858;4.472;2023-02-16T04:06:45;7.20;99.90
23715;DHT22;12036;50.858;4.472;2023-02-16T04:09:10;7.30;99.90
23715;DHT22;12036;50.858;4.472;2023-02-16T04:11:36;7.30;99.90
23715;DHT22;12036;50.858;4.472;2023-02-16T04:14:20;7.40;99.90
23715;DHT22;12036;50.858;4.472;2023-02-16T04:16:46;7.30;99.90
23715;DHT22;12036;50.858;4.472;2023-02-16T04:19:12;7.40;99.90
23715;DHT22;12036;50.858;4.472;2023-02-16T04:21:38;7.40;99.90
23715;DHT22;12036;50.858;4.472;2023-02-16T04:24:04;7.40;99.90
23715;DHT22;12036;50.858;4.472;2023-02-16T04:26:31;7.40;99.90
23715;DHT22;12036;50.858;4.472;2023-02-16T04:28:57;7.50;99.90
23715;DHT22;12036;50.858;4.472;2023-02-16T04:31:22;7.50;99.90
23715;DHT22;12036;50.858;4.472;2023-02-16T04:33:48;7.50;99.90
23715;DHT22;12036;50.858;4.472;2023-02-16T04:36:14;7.60;99.90
23715;DHT22;12036;50.858;4.472;2023-02-16T04:38:39;7.60;99.90
23715;DHT22;12036;50.858;4.472;2023-02-16T04:41:05;7.60;99.90
23715;DHT22;12036;50.858;4.472;2023-02-16T04:43:31;7.70;99.90
23715;DHT22;12036;50.858;4.472;2023-02-16T04:45:58;7.70;99.90
23715;DHT22;12036;50.858;4.472;2023-02-16T04:48:23;7.70;99.90
23715;DHT22;12036;50.858;4.472;2023-02-16T04:50:49;7.70;99.90
23715;DHT22;12036;50.858;4.472;2023-02-16T04:53:15;7.80;99.90
23715;DHT22;12036;50.858;4.472;2023-02-16T04:55:48;7.80;99.90
23715;DHT22;12036;50.858;4.472;2023-02-16T04:58:15;7.80;99.90
23715;DHT22;12036;50.858;4.472;2023-02-16T05:00:40;7.80;99.90
23715;DHT22;12036;50.858;4.472;2023-02-16T05:03:06;7.80;99.90
23715;DHT22;12036;50.858;4.472;2023-02-16T05:05:32;7.90;99.90
23715;DHT22;12036;50.858;4.472;2023-02-16T05:08:00;7.90;99.90
23715;DHT22;12036;50.858;4.472;2023-02-16T05:10:26;7.90;99.90
23715;DHT22;12036;50.858;4.472;2023-02-16T05:12:51;7.90;99.90
23715;DHT22;12036;50.858;4.472;2023-02-16T05:15:36;7.90;99.90
23715;DHT22;12036;50.858;4.472;2023-02-16T05:18:01;7.90;99.90
23715;DHT22;12036;50.858;4.472;2023-02-16T05:20:27;7.90;99.90
23715;DHT22;12036;50.858;4.472;2023-02-16T05:23:12;8.00;99.90
23715;DHT22;12036;50.858;4.472;2023-02-16T05:25:38;8.00;99.90
23715;DHT22;12036;50.858;4.472;2023-02-16T05:28:04;8.00;99.90
23715;DHT22;12036;50.858;4.472;2023-02-16T05:30:29;7.90;99.90
23715;DHT22;12036;50.858;4.472;2023-02-16T05:32:55;7.80;99.90
23715;DHT22;12036;50.858;4.472;2023-02-16T05:35:21;7.80;99.90
23715;DHT22;12036;50.858;4.472;2023-02-16T05:37:47;7.80;99.90
23715;DHT22;12036;50.858;4.472;2023-02-16T05:40:13;7.80;99.90
23715;DHT22;12036;50.858;4.472;2023-02-16T05:42:38;7.80;99.90
23715;DHT22;12036;50.858;4.472;2023-02-16T05:45:04;7.70;99.90
23715;DHT22;12036;50.858;4.472;2023-02-16T05:47:30;7.80;99.90
23715;DHT22;12036;50.858;4.472;2023-02-16T05:49:56;7.70;99.90
23715;DHT22;12036;50.858;4.472;2023-02-16T05:52:21;7.70;99.90
23715;DHT22;12036;50.858;4.472;2023-02-16T05:54:47;7.80;99.90
23715;DHT22;12036;50.858;4.472;2023-02-16T05:57:13;7.80;99.90
23715;DHT22;12036;50.858;4.472;2023-02-16T05:59:38;7.90;99.90
23715;DHT22;12036;50.858;4.472;2023-02-16T06:02:04;7.90;99.90
23715;DHT22;12036;50.858;4.472;2023-02-16T06:04:30;7.90;99.90
23715;DHT22;12036;50.858;4.472;2023-02-16T06:06:57;7.90;99.90
23715;DHT22;12036;50.858;4.472;2023-02-16T06:09:23;7.90;99.90
23715;DHT22;12036;50.858;4.472;2023-02-16T06:11:48;7.90;99.90
23715;DHT22;12036;50.858;4.472;2023-02-16T06:14:19;7.90;99.90
23715;DHT22;12036;50.858;4.472;2023-02-16T06:16:47;8.00;99.90
23715;DHT22;12036;50.858;4.472;2023-02-16T06:19:15;8.00;99.90
23715;DHT22;12036;50.858;4.472;2023-02-16T06:21:42;7.90;99.90
23715;DHT22;12036;50.858;4.472;2023-02-16T06:24:08;7.90;99.90
23715;DHT22;12036;50.858;4.472;2023-02-16T06:26:35;7.90;99.90
23715;DHT22;12036;50.858;4.472;2023-02-16T06:29:01;8.00;99.90
23715;DHT22;12036;50.858;4.472;2023-02-16T06:31:26;8.00;99.90
23715;DHT22;12036;50.858;4.472;2023-02-16T06:33:53;8.00;99.90
23715;DHT22;12036;50.858;4.472;2023-02-16T06:36:21;8.00;99.90
23715;DHT22;12036;50.858;4.472;2023-02-16T06:38:47;8.10;99.90
23715;DHT22;12036;50.858;4.472;2023-02-16T06:41:13;8.10;99.90
23715;DHT22;12036;50.858;4.472;2023-02-16T06:43:56;8.10;99.90
23715;DHT22;12036;50.858;4.472;2023-02-16T06:46:22;8.10;99.90
23715;DHT22;12036;50.858;4.472;2023-02-16T06:48:57;8.10;99.90
23715;DHT22;12036;50.858;4.472;2023-02-16T06:51:22;8.10;99.90
23715;DHT22;12036;50.858;4.472;2023-02-16T06:53:48;8.20;99.90
23715;DHT22;12036;50.858;4.472;2023-02-16T06:56:14;8.20;99.90
23715;DHT22;12036;50.858;4.472;2023-02-16T06:58:39;8.20;99.90
23715;DHT22;12036;50.858;4.472;2023-02-16T07:01:05;8.20;99.90
23715;DHT22;12036;50.858;4.472;2023-02-16T07:03:31;8.20;99.90
23715;DHT22;12036;50.858;4.472;2023-02-16T07:05:56;8.20;99.90
23715;DHT22;12036;50.858;4.472;2023-02-16T07:08:22;8.20;99.90
23715;DHT22;12036;50.858;4.472;2023-02-16T07:10:48;8.20;99.90
23715;DHT22;12036;50.858;4.472;2023-02-16T07:13:13;8.30;99.90
23715;DHT22;12036;50.858;4.472;2023-02-16T07:15:39;8.30;99.90
23715;DHT22;12036;50.858;4.472;2023-02-16T07:18:05;8.40;99.90
23715;DHT22;12036;50.858;4.472;2023-02-16T07:20:30;8.30;99.90
23715;DHT22;12036;50.858;4.472;2023-02-16T07:22:56;8.30;99.90
23715;DHT22;12036;50.858;4.472;2023-02-16T07:25:21;8.30;99.90
23715;DHT22;12036;50.858;4.472;2023-02-16T07:27:50;8.30;99.90
23715;DHT22;12036;50.858;4.472;2023-02-16T07:30:15;8.40;99.90
23715;DHT22;12036;50.858;4.472;2023-02-16T07:32:42;8.40;99.90
23715;DHT22;12036;50.858;4.472;2023-02-16T07:35:08;8.40;99.90
23715;DHT22;12036;50.858;4.472;2023-02-16T07:37:34;8.30;99.90
23715;DHT22;12036;50.858;4.472;2023-02-16T07:40:00;8.40;99.90
23715;DHT22;12036;50.858;4.472;2023-02-16T07:42:29;8.50;99.90
23715;DHT22;12036;50.858;4.472;2023-02-16T07:44:55;8.40;99.90
23715;DHT22;12036;50.858;4.472;2023-02-16T07:47:21;8.50;99.90
23715;DHT22;12036;50.858;4.472;2023-02-16T07:49:47;8.50;99.90
23715;DHT22;12036;50.858;4.472;2023-02-16T07:52:12;8.50;99.90
23715;DHT22;12036;50.858;4.472;2023-02-16T07:54:38;8.50;99.90
23715;DHT22;12036;50.858;4.472;2023-02-16T07:57:05;8.50;99.90
23715;DHT22;12036;50.858;4.472;2023-02-16T07:59:31;8.60;99.90
23715;DHT22;12036;50.858;4.472;2023-02-16T08:01:56;8.60;99.90
23715;DHT22;12036;50.858;4.472;2023-02-16T08:04:22;8.60;99.90
23715;DHT22;12036;50.858;4.472;2023-02-16T08:06:48;8.70;99.90
23715;DHT22;12036;50.858;4.472;2023-02-16T08:09:16;8.70;99.90
23715;DHT22;12036;50.858;4.472;2023-02-16T08:11:42;8.70;99.90
23715;DHT22;12036;50.858;4.472;2023-02-16T08:14:08;8.70;99.90
23715;DHT22;12036;50.858;4.472;2023-02-16T08:16:33;8.70;99.90
23715;DHT22;12036;50.858;4.472;2023-02-16T08:19:00;8.80;99.90
23715;DHT22;12036;50.858;4.472;2023-02-16T08:21:31;8.80;99.90
23715;DHT22;12036;50.858;4.472;2023-02-16T08:23:59;8.80;99.90
23715;DHT22;12036;50.858;4.472;2023-02-16T08:26:29;8.90;99.90
23715;DHT22;12036;50.858;4.472;2023-02-16T08:28:57;8.90;99.90
23715;DHT22;12036;50.858;4.472;2023-02-16T08:31:25;8.90;99.90
23715;DHT22;12036;50.858;4.472;2023-02-16T08:33:53;8.90;99.90
23715;DHT22;12036;50.858;4.472;2023-02-16T08:36:31;8.90;99.90
23715;DHT22;12036;50.858;4.472;2023-02-16T08:38:57;8.90;99.90
23715;DHT22;12036;50.858;4.472;2023-02-16T08:41:27;9.10;99.90
23715;DHT22;12036;50.858;4.472;2023-02-16T08:43:53;9.10;99.90
23715;DHT22;12036;50.858;4.472;2023-02-16T08:46:20;9.30;99.90
23715;DHT22;12036;50.858;4.472;2023-02-16T08:48:46;9.40;99.90
23715;DHT22;12036;50.858;4.472;2023-02-16T08:51:17;9.30;99.90
23715;DHT22;12036;50.858;4.472;2023-02-16T08:53:44;9.40;99.90
23715;DHT22;12036;50.858;4.472;2023-02-16T08:56:10;9.30;99.90
23715;DHT22;12036;50.858;4.472;2023-02-16T08:58:36;9.40;99.90
23715;DHT22;12036;50.858;4.472;2023-02-16T09:01:04;9.40;99.90
23715;DHT22;12036;50.858;4.472;2023-02-16T09:03:30;9.40;99.90
23715;DHT22;12036;50.858;4.472;2023-02-16T09:06:01;9.20;99.90
23715;DHT22;12036;50.858;4.472;2023-02-16T09:08:27;9.10;99.90
23715;DHT22;12036;50.858;4.472;2023-02-16T09:10:53;9.20;99.90
23715;DHT22;12036;50.858;4.472;2023-02-16T09:13:19;9.20;99.90
23715;DHT22;12036;50.858;4.472;2023-02-16T09:15:44;9.20;99.90
23715;DHT22;12036;50.858;4.472;2023-02-16T09:18:12;9.00;99.90
23715;DHT22;12036;50.858;4.472;2023-02-16T09:20:44;9.00;99.90
23715;DHT22;12036;50.858;4.472;2023-02-16T09:23:10;9.00;99.90
23715;DHT22;12036;50.858;4.472;2023-02-16T09:25:38;9.00;99.90
23715;DHT22;12036;50.858;4.472;2023-02-16T09:28:05;9.00;99.90
23715;DHT22;12036;50.858;4.472;2023-02-16T09:30:31;9.00;99.90
23715;DHT22;12036;50.858;4.472;2023-02-16T09:32:59;8.90;99.90
23715;DHT22;12036;50.858;4.472;2023-02-16T09:35:25;9.10;99.90
23715;DHT22;12036;50.858;4.472;2023-02-16T09:37:50;9.20;99.90
23715;DHT22;12036;50.858;4.472;2023-02-16T09:40:16;9.20;99.90
23715;DHT22;12036;50.858;4.472;2023-02-16T09:45:21;9.10;99.90
23715;DHT22;12036;50.858;4.472;2023-02-16T09:47:49;9.20;99.90
23715;DHT22;12036;50.858;4.472;2023-02-16T09:50:23;9.20;99.90
23715;DHT22;12036;50.858;4.472;2023-02-16T09:53:05;9.30;99.90
23715;DHT22;12036;50.858;4.472;2023-02-16T09:58:36;9.20;99.90
23715;DHT22;12036;50.858;4.472;2023-02-16T10:01:19;9.20;99.90
23715;DHT22;12036;50.858;4.472;2023-02-16T10:07:00;9.40;99.90
23715;DHT22;12036;50.858;4.472;2023-02-16T10:09:32;9.20;99.90
23715;DHT22;12036;50.858;4.472;2023-02-16T10:12:08;9.20;99.90
23715;DHT22;12036;50.858;4.472;2023-02-16T10:15:06;9.20;99.90
23715;DHT22;12036;50.858;4.472;2023-02-16T10:23:05;9.20;99.90
23715;DHT22;12036;50.858;4.472;2023-02-16T10:28:24;9.30;99.90
23715;DHT22;12036;50.858;4.472;2023-02-16T10:34:20;9.40;99.90
23715;DHT22;12036;50.858;4.472;2023-02-16T10:37:11;9.80;99.90
23715;DHT22;12036;50.858;4.472;2023-02-16T10:44:50;10.40;99.90
23715;DHT22;12036;50.858;4.472;2023-02-16T10:47:40;10.50;99.90
23715;DHT22;12036;50.858;4.472;2023-02-16T10:52:49;10.80;99.90
23715;DHT22;12036;50.858;4.472;2023-02-16T10:55:16;11.00;99.90
23715;DHT22;12036;50.858;4.472;2023-02-16T10:57:42;11.10;99.90
23715;DHT22;12036;50.858;4.472;2023-02-16T11:00:15;11.30;99.90
23715;DHT22;12036;50.858;4.472;2023-02-16T11:02:45;11.50;99.90
23715;DHT22;12036;50.858;4.472;2023-02-16T11:05:32;11.40;99.90
23715;DHT22;12036;50.858;4.472;2023-02-16T11:07:59;11.40;99.90
23715;DHT22;12036;50.858;4.472;2023-02-16T11:13:29;11.70;99.90
23715;DHT22;12036;50.858;4.472;2023-02-16T11:16:00;11.90;99.90
23715;DHT22;12036;50.858;4.472;2023-02-16T11:18:36;11.90;99.90
23715;DHT22;12036;50.858;4.472;2023-02-16T11:21:05;11.70;99.90
23715;DHT22;12036;50.858;4.472;2023-02-16T11:23:37;11.90;99.90
23715;DHT22;12036;50.858;4.472;2023-02-16T11:26:06;12.10;99.90
23715;DHT22;12036;50.858;4.472;2023-02-16T11:28:45;12.10;99.90
23715;DHT22;12036;50.858;4.472;2023-02-16T11:31:26;12.10;99.90
23715;DHT22;12036;50.858;4.472;2023-02-16T11:36:41;11.90;99.90
23715;DHT22;12036;50.858;4.472;2023-02-16T11:41:33;12.20;99.90
23715;DHT22;12036;50.858;4.472;2023-02-16T11:44:01;12.50;99.90
23715;DHT22;12036;50.858;4.472;2023-02-16T11:46:29;12.80;99.90
23715;DHT22;12036;50.858;4.472;2023-02-16T11:49:38;12.80;99.90
23715;DHT22;12036;50.858;4.472;2023-02-16T11:54:53;13.00;99.90
23715;DHT22;12036;50.858;4.472;2023-02-16T11:57:28;13.10;99.90
23715;DHT22;12036;50.858;4.472;2023-02-16T11:59:56;13.00;99.90
23715;DHT22;12036;50.858;4.472;2023-02-16T12:02:57;13.00;99.90
23715;DHT22;12036;50.858;4.472;2023-02-16T12:05:49;12.90;99.90
23715;DHT22;12036;50.858;4.472;2023-02-16T12:16:23;13.30;99.90
23715;DHT22;12036;50.858;4.472;2023-02-16T12:21:49;13.60;99.90
23715;DHT22;12036;50.858;4.472;2023-02-16T12:24:38;13.70;99.90
23715;DHT22;12036;50.858;4.472;2023-02-16T12:29:59;13.60;99.90
23715;DHT22;12036;50.858;4.472;2023-02-16T12:39:00;13.70;99.90
23715;DHT22;12036;50.858;4.472;2023-02-16T12:44:41;13.70;99.90
23715;DHT22;12036;50.858;4.472;2023-02-16T12:47:12;13.80;99.90
23715;DHT22;12036;50.858;4.472;2023-02-16T12:49:46;13.70;99.90
23715;DHT22;12036;50.858;4.472;2023-02-16T13:00:48;13.30;99.90
23715;DHT22;12036;50.858;4.472;2023-02-16T13:03:33;13.40;99.90
23715;DHT22;12036;50.858;4.472;2023-02-16T13:15:15;13.10;99.90
23715;DHT22;12036;50.858;4.472;2023-02-16T13:17:49;13.30;99.90
23715;DHT22;12036;50.858;4.472;2023-02-16T13:20:19;13.60;99.90
23715;DHT22;12036;50.858;4.472;2023-02-16T13:23:16;13.70;99.90
23715;DHT22;12036;50.858;4.472;2023-02-16T13:42:28;14.10;99.90
23715;DHT22;12036;50.858;4.472;2023-02-16T13:45:01;14.30;99.90
23715;DHT22;12036;50.858;4.472;2023-02-16T13:47:38;14.40;99.90
23715;DHT22;12036;50.858;4.472;2023-02-16T13:50:27;14.40;99.90
23715;DHT22;12036;50.858;4.472;2023-02-16T13:53:07;14.40;99.90
23715;DHT22;12036;50.858;4.472;2023-02-16T13:55:36;14.20;99.90
23715;DHT22;12036;50.858;4.472;2023-02-16T14:00:38;14.10;99.90
23715;DHT22;12036;50.858;4.472;2023-02-16T14:05:40;14.20;99.90
23715;DHT22;12036;50.858;4.472;2023-02-16T14:08:28;13.70;99.90
23715;DHT22;12036;50.858;4.472;2023-02-16T14:10:55;13.50;99.90
23715;DHT22;12036;50.858;4.472;2023-02-16T14:18:56;13.80;99.90
23715;DHT22;12036;50.858;4.472;2023-02-16T14:21:42;13.70;99.90
23715;DHT22;12036;50.858;4.472;2023-02-16T14:24:23;13.70;99.90
23715;DHT22;12036;50.858;4.472;2023-02-16T14:27:38;13.70;99.90
23715;DHT22;12036;50.858;4.472;2023-02-16T14:30:04;13.60;99.90
23715;DHT22;12036;50.858;4.472;2023-02-16T14:32:37;13.50;99.90
23715;DHT22;12036;50.858;4.472;2023-02-16T14:35:07;13.40;99.90
23715;DHT22;12036;50.858;4.472;2023-02-16T14:37:52;13.40;99.90
23715;DHT22;12036;50.858;4.472;2023-02-16T14:43:02;13.30;99.90
23715;DHT22;12036;50.858;4.472;2023-02-16T14:48:28;13.50;99.90
23715;DHT22;12036;50.858;4.472;2023-02-16T14:54:16;13.50;99.90
23715;DHT22;12036;50.858;4.472;2023-02-16T14:56:55;13.40;99.90
23715;DHT22;12036;50.858;4.472;2023-02-16T14:59:29;13.50;99.90
23715;DHT22;12036;50.858;4.472;2023-02-16T15:01:56;13.50;99.90
23715;DHT22;12036;50.858;4.472;2023-02-16T15:04:32;13.50;99.90
23715;DHT22;12036;50.858;4.472;2023-02-16T15:07:01;13.50;99.90
23715;DHT22;12036;50.858;4.472;2023-02-16T15:09:31;13.50;99.90
23715;DHT22;12036;50.858;4.472;2023-02-16T15:12:02;13.50;99.90
23715;DHT22;12036;50.858;4.472;2023-02-16T15:17:37;13.50;99.90
23715;DHT22;12036;50.858;4.472;2023-02-16T15:20:16;13.40;99.90
23715;DHT22;12036;50.858;4.472;2023-02-16T15:22:55;13.60;99.90
23715;DHT22;12036;50.858;4.472;2023-02-16T15:28:17;13.70;99.90
23715;DHT22;12036;50.858;4.472;2023-02-16T15:30:53;13.80;99.90
23715;DHT22;12036;50.858;4.472;2023-02-16T15:35:53;13.50;99.90
23715;DHT22;12036;50.858;4.472;2023-02-16T15:38:53;13.40;99.90
23715;DHT22;12036;50.858;4.472;2023-02-16T15:41:30;13.20;99.90
23715;DHT22;12036;50.858;4.472;2023-02-16T15:43:57;13.20;99.90
23715;DHT22;12036;50.858;4.472;2023-02-16T15:48:48;13.20;99.90
23715;DHT22;12036;50.858;4.472;2023-02-16T15:51:19;13.00;99.90
23715;DHT22;12036;50.858;4.472;2023-02-16T15:53:53;13.00;99.90
23715;DHT22;12036;50.858;4.472;2023-02-16T15:58:57;12.70;99.90
23715;DHT22;12036;50.858;4.472;2023-02-16T16:01:31;12.60;99.90
23715;DHT22;12036;50.858;4.472;2023-02-16T16:06:42;12.10;99.90
23715;DHT22;12036;50.858;4.472;2023-02-16T16:09:23;12.00;99.90
23715;DHT22;12036;50.858;4.472;2023-02-16T16:11:52;11.80;99.90
23715;DHT22;12036;50.858;4.472;2023-02-16T16:14:18;11.70;99.90
23715;DHT22;12036;50.858;4.472;2023-02-16T16:16:44;11.60;99.90
23715;DHT22;12036;50.858;4.472;2023-02-16T16:19:36;11.60;99.90
23715;DHT22;12036;50.858;4.472;2023-02-16T16:22:53;11.60;99.90
23715;DHT22;12036;50.858;4.472;2023-02-16T16:24:50;11.60;99.90
23715;DHT22;12036;50.858;4.472;2023-02-16T16:27:33;11.50;99.90
23715;DHT22;12036;50.858;4.472;2023-02-16T16:32:46;11.40;99.90
23715;DHT22;12036;50.858;4.472;2023-02-16T16:37:59;11.30;99.90
23715;DHT22;12036;50.858;4.472;2023-02-16T16:40:30;11.30;99.90
23715;DHT22;12036;50.858;4.472;2023-02-16T16:45:43;11.10;99.90
23715;DHT22;12036;50.858;4.472;2023-02-16T16:50:46;11.00;99.90
23715;DHT22;12036;50.858;4.472;2023-02-16T16:53:43;10.90;99.90
23715;DHT22;12036;50.858;4.472;2023-02-16T16:56:12;10.90;99.90
23715;DHT22;12036;50.858;4.472;2023-02-16T16:58:38;10.90;99.90
23715;DHT22;12036;50.858;4.472;2023-02-16T17:01:04;10.90;99.90
23715;DHT22;12036;50.858;4.472;2023-02-16T17:03:30;10.80;99.90
23715;DHT22;12036;50.858;4.472;2023-02-16T17:05:55;10.80;99.90
23715;DHT22;12036;50.858;4.472;2023-02-16T17:08:21;10.80;99.90
23715;DHT22;12036;50.858;4.472;2023-02-16T17:10:53;10.90;99.90
23715;DHT22;12036;50.858;4.472;2023-02-16T17:13:20;10.80;99.90
23715;DHT22;12036;50.858;4.472;2023-02-16T17:18:16;10.70;99.90
23715;DHT22;12036;50.858;4.472;2023-02-16T17:20:42;10.70;99.90
23715;DHT22;12036;50.858;4.472;2023-02-16T17:23:14;10.70;99.90
23715;DHT22;12036;50.858;4.472;2023-02-16T17:25:40;10.70;99.90
23715;DHT22;12036;50.858;4.472;2023-02-16T17:28:06;10.70;99.90
23715;DHT22;12036;50.858;4.472;2023-02-16T17:30:32;10.80;99.90
23715;DHT22;12036;50.858;4.472;2023-02-16T17:32:58;10.80;99.90
23715;DHT22;12036;50.858;4.472;2023-02-16T17:35:24;10.80;99.90
23715;DHT22;12036;50.858;4.472;2023-02-16T17:37:50;10.90;99.90
23715;DHT22;12036;50.858;4.472;2023-02-16T17:40:18;10.90;99.90
23715;DHT22;12036;50.858;4.472;2023-02-16T17:42:47;11.00;99.90
23715;DHT22;12036;50.858;4.472;2023-02-16T17:45:15;11.00;99.90
23715;DHT22;12036;50.858;4.472;2023-02-16T17:47:42;11.00;99.90
23715;DHT22;12036;50.858;4.472;2023-02-16T17:50:11;11.00;99.90
23715;DHT22;12036;50.858;4.472;2023-02-16T17:52:38;11.00;99.90
23715;DHT22;12036;50.858;4.472;2023-02-16T17:55:05;11.00;99.90
23715;DHT22;12036;50.858;4.472;2023-02-16T17:57:31;11.00;99.90
23715;DHT22;12036;50.858;4.472;2023-02-16T17:59:57;11.10;99.90
23715;DHT22;12036;50.858;4.472;2023-02-16T18:02:23;11.10;99.90
23715;DHT22;12036;50.858;4.472;2023-02-16T18:04:48;11.20;99.90
23715;DHT22;12036;50.858;4.472;2023-02-16T18:07:15;11.20;99.90
23715;DHT22;12036;50.858;4.472;2023-02-16T18:09:43;11.30;99.90
23715;DHT22;12036;50.858;4.472;2023-02-16T18:12:09;11.30;99.90
23715;DHT22;12036;50.858;4.472;2023-02-16T18:14:34;11.30;99.90
23715;DHT22;12036;50.858;4.472;2023-02-16T18:17:01;11.30;99.90
23715;DHT22;12036;50.858;4.472;2023-02-16T18:19:27;11.20;99.90
23715;DHT22;12036;50.858;4.472;2023-02-16T18:21:54;11.20;99.90
23715;DHT22;12036;50.858;4.472;2023-02-16T18:24:20;11.20;99.90
23715;DHT22;12036;50.858;4.472;2023-02-16T18:26:47;11.20;99.90
23715;DHT22;12036;50.858;4.472;2023-02-16T18:29:14;11.30;99.90
23715;DHT22;12036;50.858;4.472;2023-02-16T18:31:40;11.20;99.90
23715;DHT22;12036;50.858;4.472;2023-02-16T18:34:06;11.30;99.90
23715;DHT22;12036;50.858;4.472;2023-02-16T18:36:34;11.20;99.90
23715;DHT22;12036;50.858;4.472;2023-02-16T18:39:00;11.20;99.90
23715;DHT22;12036;50.858;4.472;2023-02-16T18:41:26;11.10;99.90
23715;DHT22;12036;50.858;4.472;2023-02-16T18:43:52;11.10;99.90
23715;DHT22;12036;50.858;4.472;2023-02-16T18:46:17;11.10;99.90
23715;DHT22;12036;50.858;4.472;2023-02-16T18:48:43;11.10;99.90
23715;DHT22;12036;50.858;4.472;2023-02-16T18:51:10;11.00;99.90